Time;durP1;ratioP1;P1;durP2;ratioP2;P2;SDS_P1;SDS_P2;PMS_P1;PMS_P2;Temp;Humidity;BMP_temperature;BMP_pressure;BME280_temperature;BME280_humidity;BME280_pressure;Samples;Min_cycle;Max_cycle;Signal;HPM_P1;HPM_P2
2024/01/04 00:08:05;;;;;;;1.27;0.70;;;;;;;19.07;52.40;94833.38;20875710;28;20071;-58
2024/01/04 00:18:25;;;;;;;2.25;0.88;;;;;;;19.04;52.33;94836.78;20828748;28;20053;-58
2024/01/04 00:28:44;;;;;;;0.65;0.47;;;;;;;19.03;52.42;94835.22;20812812;28;20053;-58
2024/01/04 00:39:03;;;;;;;1.30;0.80;;;;;;;18.99;52.42;94842.50;20856781;28;20040;-57
2024/01/04 00:49:23;;;;;;;1.00;0.70;;;;;;;18.96;52.34;94835.94;20855332;28;20114;-58
2024/01/04 00:59:43;;;;;;;1.60;0.80;;;;;;;18.96;52.38;94833.25;20880659;28;20053;-55
2024/01/04 01:10:03;;;;;;;0.60;0.60;;;;;;;18.94;52.39;94842.84;20860268;28;20116;-56
2024/01/04 01:20:22;;;;;;;0.60;0.50;;;;;;;18.92;52.36;94842.44;20868627;28;20064;-56
2024/01/04 01:30:42;;;;;;;0.77;0.50;;;;;;;18.90;52.33;94850.13;20885240;28;20107;-56
2024/01/04 01:41:01;;;;;;;0.82;0.60;;;;;;;18.87;52.22;94856.25;20883679;28;20049;-56
2024/01/04 01:51:21;;;;;;;0.57;0.50;;;;;;;18.87;52.40;94877.81;20876478;28;20045;-58
2024/01/04 02:01:41;;;;;;;1.45;0.60;;;;;;;18.83;52.29;94868.91;20863940;28;20284;-58
2024/01/04 02:12:09;;;;;;;0.40;0.40;;;;;;;18.80;52.16;94888.50;20860826;28;20052;-55
2024/01/04 02:22:30;;;;;;;0.73;0.60;;;;;;;18.77;52.42;94893.47;20864954;28;20590;-55
2024/01/04 02:32:49;;;;;;;1.15;0.50;;;;;;;18.75;52.31;94903.84;20889191;28;20053;-56
2024/01/04 02:43:09;;;;;;;1.23;0.63;;;;;;;18.72;52.35;94887.63;20862275;28;20547;-56
2024/01/04 02:53:29;;;;;;;2.05;0.85;;;;;;;18.72;52.24;94895.72;20862995;28;20083;-56
2024/01/04 03:03:51;;;;;;;1.58;0.50;;;;;;;18.70;52.19;94898.78;20859968;28;20052;-56
2024/01/04 03:14:10;;;;;;;0.45;0.45;;;;;;;18.69;52.29;94882.97;20887559;28;20045;-58
2024/01/04 03:24:31;;;;;;;2.25;0.45;;;;;;;18.66;52.25;94875.59;20856055;28;20049;-59
2024/01/04 03:34:51;;;;;;;0.55;0.55;;;;;;;18.65;52.35;94876.75;20861028;28;20811;-58
2024/01/04 03:45:10;;;;;;;0.45;0.45;;;;;;;18.62;52.31;94872.06;20860571;28;20053;-58
2024/01/04 03:55:30;;;;;;;0.68;0.40;;;;;;;18.58;52.33;94883.59;20873815;28;20496;-56
2024/01/04 04:05:50;;;;;;;0.70;0.50;;;;;;;18.56;52.27;94896.66;20858403;28;20052;-56
2024/01/04 04:16:09;;;;;;;0.60;0.40;;;;;;;18.57;52.18;94900.13;20864121;28;20056;-56
2024/01/04 04:26:29;;;;;;;0.35;0.32;;;;;;;18.56;52.04;94906.66;20873524;28;20045;-58
2024/01/04 04:36:49;;;;;;;0.95;0.50;;;;;;;18.52;51.99;94922.00;20886639;28;20048;-59
2024/01/04 04:47:09;;;;;;;1.50;0.35;;;;;;;18.48;52.12;94923.88;20872769;28;20049;-59
2024/01/04 04:57:28;;;;;;;0.50;0.43;;;;;;;18.48;52.19;94940.06;20887197;28;20060;-58
2024/01/04 05:07:47;;;;;;;0.40;0.40;;;;;;;18.46;52.14;94926.16;20867637;28;20507;-57
2024/01/04 05:18:08;;;;;;;0.50;0.50;;;;;;;18.48;53.23;94937.34;20892982;28;20582;-55
2024/01/04 05:28:28;;;;;;;0.40;0.40;;;;;;;18.47;53.40;94946.59;20897158;28;20045;-56
2024/01/04 05:38:47;;;;;;;1.02;0.50;;;;;;;18.52;53.18;94948.97;20902896;28;20045;-59
2024/01/04 05:49:07;;;;;;;1.15;0.45;;;;;;;18.56;53.19;94945.22;20868568;28;20049;-59
2024/01/04 05:59:27;;;;;;;2.22;0.40;;;;;;;18.62;53.18;94967.25;20855948;28;20110;-57
2024/01/04 06:09:47;;;;;;;1.83;0.40;;;;;;;18.64;53.28;94978.47;20856379;28;20234;-57
2024/01/04 06:20:06;;;;;;;11.38;2.30;;;;;;;18.64;53.23;94983.84;20863806;28;20075;-59
2024/01/04 06:30:26;;;;;;;8.73;2.30;;;;;;;18.68;52.93;95010.84;20839691;28;20057;-55
2024/01/04 06:40:46;;;;;;;7.00;2.17;;;;;;;18.71;52.88;95019.00;20855858;28;20050;-54
2024/01/04 06:51:06;;;;;;;10.57;2.80;;;;;;;18.78;52.71;95029.16;20791080;28;20054;-55
2024/01/04 07:01:25;;;;;;;9.07;2.90;;;;;;;18.87;52.72;95037.78;20812962;28;20061;-55
2024/01/04 07:11:45;;;;;;;7.88;2.88;;;;;;;18.95;52.33;95052.97;20790316;28;20050;-56
2024/01/04 07:22:05;;;;;;;10.88;2.63;;;;;;;18.99;52.29;95053.00;20793659;28;20110;-55
2024/01/04 07:32:25;;;;;;;9.68;2.88;;;;;;;19.07;52.10;95061.97;20874511;28;20033;-53
2024/01/04 07:42:44;;;;;;;7.00;3.13;;;;;;;19.13;52.01;95064.03;20868922;28;20439;-55
2024/01/04 07:53:04;;;;;;;8.02;2.88;;;;;;;19.20;51.83;95073.38;20901090;28;20613;-58
2024/01/04 08:03:23;;;;;;;8.52;2.60;;;;;;;19.24;51.73;95064.16;20823943;28;20060;-58
2024/01/04 08:13:43;;;;;;;7.80;2.90;;;;;;;19.30;51.51;95076.19;20870768;28;20053;-58
2024/01/04 08:24:03;;;;;;;5.63;2.53;;;;;;;19.40;51.19;95093.69;20819715;28;20413;-56
2024/01/04 08:34:23;;;;;;;6.38;2.38;;;;;;;19.54;50.98;95093.91;20901431;28;20406;-56
2024/01/04 08:44:43;;;;;;;8.00;2.90;;;;;;;19.59;50.72;95106.31;20851625;28;20057;-57
2024/01/04 08:55:03;;;;;;;7.30;3.08;;;;;;;19.61;50.76;95130.28;20804769;28;20072;-57
2024/01/04 09:05:22;;;;;;;6.00;2.42;;;;;;;19.73;50.53;95132.78;20871328;28;20482;-56
2024/01/04 09:15:42;;;;;;;5.63;2.40;;;;;;;19.74;50.42;95161.38;20869747;28;20064;-59
2024/01/04 09:26:08;;;;;;;5.28;2.25;;;;;;;19.78;50.25;95164.91;20872654;28;20049;-57
2024/01/04 09:36:28;;;;;;;4.77;2.07;;;;;;;19.88;50.01;95175.06;20868608;28;20059;-58
2024/01/04 09:46:49;;;;;;;4.68;2.00;;;;;;;20.01;49.51;95191.06;20873416;28;20039;-57
2024/01/04 09:57:08;;;;;;;3.42;2.03;;;;;;;20.08;49.49;95207.38;20849485;28;20056;-57
2024/01/04 10:07:31;;;;;;;3.83;2.08;;;;;;;20.09;49.33;95219.75;20851577;28;20050;-58
2024/01/04 10:17:52;;;;;;;4.63;2.05;;;;;;;20.14;49.26;95203.22;20848739;28;20553;-55
2024/01/04 10:28:19;;;;;;;4.07;2.13;;;;;;;20.33;48.77;95223.94;20892523;28;20045;-55
2024/01/04 10:38:38;;;;;;;5.07;2.08;;;;;;;20.33;48.64;95230.13;20891856;28;20102;-55
2024/01/04 10:48:58;;;;;;;4.65;2.00;;;;;;;20.30;48.84;95244.34;20834673;28;20034;-55
2024/01/04 10:59:19;;;;;;;4.15;1.88;;;;;;;20.39;48.60;95248.75;20829438;28;20593;-55
2024/01/04 11:09:39;;;;;;;2.42;1.70;;;;;;;20.32;48.69;95260.22;20861521;28;20049;-54
2024/01/04 11:20:12;;;;;;;3.28;1.70;;;;;;;20.37;48.63;95242.91;20864275;28;20052;-55
2024/01/04 11:30:31;;;;;;;2.58;1.60;;;;;;;20.42;48.42;95248.75;20857338;28;20084;-55
2024/01/04 11:40:51;;;;;;;3.00;1.73;;;;;;;20.42;48.45;95253.41;20877262;28;20110;-55
2024/01/04 11:51:11;;;;;;;2.20;1.40;;;;;;;20.44;48.44;95246.47;20802259;28;20525;-55
2024/01/04 12:01:31;;;;;;;2.10;1.50;;;;;;;20.47;48.37;95250.38;20872402;28;20417;-55
2024/01/04 12:11:55;;;;;;;2.78;1.60;;;;;;;20.47;48.18;95253.09;20875058;28;20057;-55
2024/01/04 12:22:15;;;;;;;2.47;1.60;;;;;;;20.51;48.16;95273.63;20791899;28;20057;-55
2024/01/04 12:32:35;;;;;;;2.42;1.27;;;;;;;20.62;47.89;95271.09;20822010;28;20048;-58
2024/01/04 12:42:55;;;;;;;2.75;1.58;;;;;;;20.70;47.67;95271.97;20873293;28;20570;-57
2024/01/04 12:53:15;;;;;;;2.60;1.70;;;;;;;20.69;47.75;95284.69;20844269;28;20756;-58
2024/01/04 13:03:35;;;;;;;3.08;1.45;;;;;;;20.74;47.56;95300.63;20840618;28;20049;-58
2024/01/04 13:13:55;;;;;;;2.42;1.40;;;;;;;20.69;47.67;95308.28;20896697;28;20048;-58
2024/01/04 13:24:14;;;;;;;2.17;1.17;;;;;;;20.61;47.75;95304.69;20812478;28;20733;-57
2024/01/04 13:34:34;;;;;;;1.80;1.30;;;;;;;20.61;47.92;95314.75;20845485;28;20079;-58
2024/01/04 13:44:53;;;;;;;2.78;1.33;;;;;;;20.62;47.77;95337.94;20867524;28;20095;-56
2024/01/04 13:55:12;;;;;;;1.70;1.05;;;;;;;20.60;47.83;95351.84;20857486;28;20470;-56
2024/01/04 14:05:31;;;;;;;1.65;1.20;;;;;;;20.62;47.82;95360.38;20866407;28;20826;-58
2024/01/04 14:15:51;;;;;;;1.90;1.30;;;;;;;20.59;47.88;95363.00;20796927;28;20431;-58
2024/01/04 14:26:11;;;;;;;1.75;1.30;;;;;;;20.57;47.84;95385.00;20808909;28;20033;-58
2024/01/04 14:36:31;;;;;;;1.75;1.13;;;;;;;20.52;47.97;95383.41;20807787;28;20115;-57
2024/01/04 14:46:51;;;;;;;1.73;1.20;;;;;;;20.52;47.92;95404.25;20816242;28;20067;-57
2024/01/04 14:57:10;;;;;;;2.15;1.02;;;;;;;20.51;47.98;95424.34;20880558;28;20135;-55
2024/01/04 15:07:30;;;;;;;1.60;1.17;;;;;;;20.50;47.96;95434.38;20860938;28;20448;-55
2024/01/04 15:17:50;;;;;;;0.90;0.70;;;;;;;20.49;48.08;95448.28;20791070;28;20484;-55
2024/01/04 15:28:09;;;;;;;0.80;0.80;;;;;;;20.47;48.07;95445.91;20852814;28;20049;-56
2024/01/04 15:38:29;;;;;;;1.40;0.95;;;;;;;20.47;48.00;95464.09;20824054;28;20050;-56
2024/01/04 15:48:48;;;;;;;0.93;0.80;;;;;;;20.49;48.01;95469.91;20856766;28;20048;-55
2024/01/04 15:59:08;;;;;;;1.38;1.00;;;;;;;20.47;48.01;95467.56;20858656;28;20061;-55
2024/01/04 16:09:28;;;;;;;1.83;1.15;;;;;;;20.49;47.97;95478.81;20892092;28;20389;-56
2024/01/04 16:19:48;;;;;;;1.17;0.80;;;;;;;20.49;48.00;95494.25;20874470;28;20053;-58
2024/01/04 16:30:10;;;;;;;1.15;0.63;;;;;;;20.55;47.68;95495.50;20861918;28;20080;-53
2024/01/04 16:40:29;;;;;;;2.85;0.80;;;;;;;20.55;48.14;95507.09;20870119;28;20048;-58
2024/01/04 16:50:49;;;;;;;1.50;0.80;;;;;;;20.65;48.22;95521.22;20888086;28;20048;-57
2024/01/04 17:01:09;;;;;;;1.38;0.80;;;;;;;20.64;48.61;95530.47;20906834;28;20053;-56
2024/01/04 17:11:28;;;;;;;1.00;0.60;;;;;;;20.63;48.66;95600.03;20883170;28;20045;-56
2024/01/04 17:21:48;;;;;;;1.85;0.80;;;;;;;20.61;48.84;95623.97;20871161;28;20108;-57
2024/01/04 17:32:08;;;;;;;1.48;0.70;;;;;;;20.59;48.99;95615.44;20922702;28;20045;-53
2024/01/04 17:42:27;;;;;;;1.70;0.70;;;;;;;20.58;49.07;95632.78;20879239;28;20056;-57
2024/01/04 17:52:47;;;;;;;1.02;0.90;;;;;;;20.55;49.18;95641.63;20857011;28;20064;-59
2024/01/04 18:03:07;;;;;;;0.95;0.63;;;;;;;20.52;49.22;95663.97;20869305;28;20422;-59
2024/01/04 18:13:28;;;;;;;0.95;0.80;;;;;;;20.50;49.40;95677.06;20852001;28;20051;-59
2024/01/04 18:23:47;;;;;;;0.98;0.60;;;;;;;20.46;49.31;95674.28;20895702;28;20049;-59
2024/01/04 18:34:07;;;;;;;1.48;0.70;;;;;;;20.42;49.45;95692.38;20907933;28;20056;-56
2024/01/04 18:44:26;;;;;;;1.50;0.60;;;;;;;20.38;49.58;95742.13;20854155;28;20053;-56
2024/01/04 18:54:46;;;;;;;1.23;0.70;;;;;;;20.37;49.73;95737.88;20908734;28;20044;-56
2024/01/04 19:05:05;;;;;;;2.58;0.50;;;;;;;20.32;49.68;95741.63;20815861;28;20052;-56
2024/01/04 19:15:27;;;;;;;1.35;0.70;;;;;;;20.27;49.65;95750.81;20770773;28;20041;-56
2024/01/04 19:25:46;;;;;;;1.83;0.73;;;;;;;20.23;49.04;95755.38;20746188;28;20053;-53
2024/01/04 19:36:06;;;;;;;2.40;0.65;;;;;;;20.22;49.57;95763.84;20786268;28;20475;-54
2024/01/04 19:46:26;;;;;;;2.65;0.60;;;;;;;20.19;50.02;95769.94;20812545;28;20037;-55
2024/01/04 19:56:46;;;;;;;1.20;0.60;;;;;;;20.12;50.00;95771.34;20830920;28;20063;-59
2024/01/04 20:07:07;;;;;;;2.95;0.90;;;;;;;20.08;50.32;95807.56;20911572;28;20148;-59
2024/01/04 20:17:29;;;;;;;3.72;0.80;;;;;;;20.04;50.01;95817.50;20879884;28;20560;-57
2024/01/04 20:27:49;;;;;;;1.98;0.82;;;;;;;20.01;50.25;95816.28;20897336;28;20091;-58
2024/01/04 20:38:08;;;;;;;2.47;0.80;;;;;;;19.98;50.22;95829.72;20844303;28;20528;-59
2024/01/04 20:48:28;;;;;;;2.05;0.82;;;;;;;19.95;50.62;95836.59;20880894;28;20045;-57
2024/01/04 20:58:48;;;;;;;1.75;0.80;;;;;;;19.88;50.99;95850.75;20893442;28;20064;-57
2024/01/04 21:09:07;;;;;;;3.85;0.90;;;;;;;19.85;51.13;95851.41;20889908;28;21992;-56
2024/01/04 21:19:27;;;;;;;1.05;0.60;;;;;;;19.83;51.21;95855.63;20904385;28;20670;-56
2024/01/04 21:29:46;;;;;;;2.25;0.73;;;;;;;19.78;51.55;95870.19;20891882;28;20114;-56
2024/01/04 21:40:07;;;;;;;2.45;0.75;;;;;;;19.74;51.49;95880.91;20912777;28;20056;-57
2024/01/04 21:50:27;;;;;;;1.80;0.60;;;;;;;19.72;51.83;95887.78;20855925;28;20044;-55
2024/01/04 22:00:46;;;;;;;1.42;0.80;;;;;;;19.71;51.80;95880.78;20864886;28;20537;-56
2024/01/04 22:11:05;;;;;;;1.65;0.65;;;;;;;19.71;52.24;95881.56;20894828;28;20045;-56
2024/01/04 22:21:26;;;;;;;1.88;0.60;;;;;;;19.69;52.24;95875.72;20883444;28;20056;-55
2024/01/04 22:31:46;;;;;;;1.55;0.65;;;;;;;19.67;52.38;95885.31;20864638;28;20398;-58
2024/01/04 22:42:09;;;;;;;1.80;0.65;;;;;;;19.65;52.26;95887.56;20857298;28;20053;-56
2024/01/04 22:52:29;;;;;;;1.23;0.77;;;;;;;19.62;52.25;95883.66;20909089;28;20048;-55
2024/01/04 23:02:50;;;;;;;1.52;0.80;;;;;;;19.54;52.32;95882.69;20831051;28;20079;-57
2024/01/04 23:13:10;;;;;;;1.35;0.70;;;;;;;19.50;52.55;95878.28;20876310;28;20429;-58
2024/01/04 23:23:29;;;;;;;2.10;0.70;;;;;;;19.46;52.38;95878.19;20846658;28;20045;-57
2024/01/04 23:33:49;;;;;;;1.52;0.75;;;;;;;19.45;52.30;95875.88;20860256;28;20130;-58
2024/01/04 23:44:09;;;;;;;0.93;0.60;;;;;;;19.40;52.38;95893.09;20856557;28;20053;-57
2024/01/04 23:54:29;;;;;;;1.80;0.80;;;;;;;19.38;52.37;95879.13;20852704;28;20045;-57
